<?xml version="1.0" encoding="UTF-8" standalone="no" ?>
<gpx xmlns="http://www.topografix.com/GPX/1/1" xmlns:xsi="http://www.w3.org/2001/XMLSchema-instance" xsi:schemaLocation="http://www.topografix.com/GPX/1/1 http://www.topografix.com/GPX/1/1/gpx.xsd" version="1.1" creator="VisuGPX - https://www.visugpx.com">
  <metadata>
    <name>BOUCONNE PUJAUDRAN 9.1km AV</name>
  </metadata>
  <wpt lat="43.59831" lon="1.1868">
    <ele>240</ele>
    <name><![CDATA[Parking Départ]]></name>
  </wpt>
  <wpt lat="43.59838" lon="1.18661">
    <ele>241</ele>
    <name><![CDATA[Retour voiture]]></name>
  </wpt>
  <trk>
    <name><![CDATA[BOUCONNE PUJAUDRAN 9.1km]]></name>
    <trkseg>
      <trkpt lat="43.59831" lon="1.1868">
        <ele>240</ele>
        <time>2019-12-30T12:37:23+01:00</time>
      </trkpt>
      <trkpt lat="43.59831" lon="1.18642">
        <ele>241</ele>
        <time>2019-12-30T12:37:45+01:00</time>
      </trkpt>
      <trkpt lat="43.59849" lon="1.18629">
        <ele>242</ele>
        <time>2019-12-30T12:38:01+01:00</time>
      </trkpt>
      <trkpt lat="43.59834" lon="1.18612">
        <ele>241</ele>
        <time>2019-12-30T12:38:16+01:00</time>
      </trkpt>
      <trkpt lat="43.59802" lon="1.18587">
        <ele>241</ele>
        <time>2019-12-30T12:38:46+01:00</time>
      </trkpt>
      <trkpt lat="43.59758" lon="1.18547">
        <ele>242</ele>
        <time>2019-12-30T12:39:27+01:00</time>
      </trkpt>
      <trkpt lat="43.59726" lon="1.1852">
        <ele>242</ele>
        <time>2019-12-30T12:39:58+01:00</time>
      </trkpt>
      <trkpt lat="43.59697" lon="1.18487">
        <ele>241</ele>
        <time>2019-12-30T12:40:28+01:00</time>
      </trkpt>
      <trkpt lat="43.59714" lon="1.18407">
        <ele>243</ele>
        <time>2019-12-30T12:41:17+01:00</time>
      </trkpt>
      <trkpt lat="43.59725" lon="1.1837">
        <ele>245</ele>
        <time>2019-12-30T12:41:40+01:00</time>
      </trkpt>
      <trkpt lat="43.59737" lon="1.18337">
        <ele>247</ele>
        <time>2019-12-30T12:42:02+01:00</time>
      </trkpt>
      <trkpt lat="43.5974" lon="1.18293">
        <ele>249</ele>
        <time>2019-12-30T12:42:27+01:00</time>
      </trkpt>
      <trkpt lat="43.5975" lon="1.18235">
        <ele>253</ele>
        <time>2019-12-30T12:43:02+01:00</time>
      </trkpt>
      <trkpt lat="43.59754" lon="1.18196">
        <ele>254</ele>
        <time>2019-12-30T12:43:25+01:00</time>
      </trkpt>
      <trkpt lat="43.5976" lon="1.18176">
        <ele>255</ele>
        <time>2019-12-30T12:43:37+01:00</time>
      </trkpt>
      <trkpt lat="43.59752" lon="1.18125">
        <ele>258</ele>
        <time>2019-12-30T12:44:08+01:00</time>
      </trkpt>
      <trkpt lat="43.59745" lon="1.18092">
        <ele>259</ele>
        <time>2019-12-30T12:44:28+01:00</time>
      </trkpt>
      <trkpt lat="43.59736" lon="1.18058">
        <ele>260</ele>
        <time>2019-12-30T12:44:48+01:00</time>
      </trkpt>
      <trkpt lat="43.59736" lon="1.17953">
        <ele>265</ele>
        <time>2019-12-30T12:45:49+01:00</time>
      </trkpt>
      <trkpt lat="43.59736" lon="1.17929">
        <ele>266</ele>
        <time>2019-12-30T12:46:03+01:00</time>
      </trkpt>
      <trkpt lat="43.59733" lon="1.17909">
        <ele>266</ele>
        <time>2019-12-30T12:46:15+01:00</time>
      </trkpt>
      <trkpt lat="43.59727" lon="1.17871">
        <ele>268</ele>
        <time>2019-12-30T12:46:38+01:00</time>
      </trkpt>
      <trkpt lat="43.59726" lon="1.17847">
        <ele>269</ele>
        <time>2019-12-30T12:46:52+01:00</time>
      </trkpt>
      <trkpt lat="43.59729" lon="1.1782">
        <ele>270</ele>
        <time>2019-12-30T12:47:08+01:00</time>
      </trkpt>
      <trkpt lat="43.59733" lon="1.17804">
        <ele>270</ele>
        <time>2019-12-30T12:47:18+01:00</time>
      </trkpt>
      <trkpt lat="43.59728" lon="1.17776">
        <ele>270</ele>
        <time>2019-12-30T12:47:34+01:00</time>
      </trkpt>
      <trkpt lat="43.59728" lon="1.17751">
        <ele>270</ele>
        <time>2019-12-30T12:47:49+01:00</time>
      </trkpt>
      <trkpt lat="43.59727" lon="1.17739">
        <ele>270</ele>
        <time>2019-12-30T12:47:56+01:00</time>
      </trkpt>
      <trkpt lat="43.59727" lon="1.17721">
        <ele>270</ele>
        <time>2019-12-30T12:48:06+01:00</time>
      </trkpt>
      <trkpt lat="43.5973" lon="1.17698">
        <ele>270</ele>
        <time>2019-12-30T12:48:20+01:00</time>
      </trkpt>
      <trkpt lat="43.59733" lon="1.17683">
        <ele>270</ele>
        <time>2019-12-30T12:48:29+01:00</time>
      </trkpt>
      <trkpt lat="43.59738" lon="1.17667">
        <ele>271</ele>
        <time>2019-12-30T12:48:39+01:00</time>
      </trkpt>
      <trkpt lat="43.5975" lon="1.17645">
        <ele>272</ele>
        <time>2019-12-30T12:48:55+01:00</time>
      </trkpt>
      <trkpt lat="43.5976" lon="1.17612">
        <ele>272</ele>
        <time>2019-12-30T12:49:16+01:00</time>
      </trkpt>
      <trkpt lat="43.59766" lon="1.17579">
        <ele>272</ele>
        <time>2019-12-30T12:49:36+01:00</time>
      </trkpt>
      <trkpt lat="43.5977" lon="1.17553">
        <ele>272</ele>
        <time>2019-12-30T12:49:51+01:00</time>
      </trkpt>
      <trkpt lat="43.59784" lon="1.17525">
        <ele>273</ele>
        <time>2019-12-30T12:50:11+01:00</time>
      </trkpt>
      <trkpt lat="43.59787" lon="1.17497">
        <ele>273</ele>
        <time>2019-12-30T12:50:28+01:00</time>
      </trkpt>
      <trkpt lat="43.59791" lon="1.17468">
        <ele>274</ele>
        <time>2019-12-30T12:50:44+01:00</time>
      </trkpt>
      <trkpt lat="43.59793" lon="1.17441">
        <ele>275</ele>
        <time>2019-12-30T12:51:01+01:00</time>
      </trkpt>
      <trkpt lat="43.5982" lon="1.174">
        <ele>274</ele>
        <time>2019-12-30T12:51:33+01:00</time>
      </trkpt>
      <trkpt lat="43.59843" lon="1.17384">
        <ele>273</ele>
        <time>2019-12-30T12:51:53+01:00</time>
      </trkpt>
      <trkpt lat="43.5986" lon="1.17366">
        <ele>273</ele>
        <time>2019-12-30T12:52:11+01:00</time>
      </trkpt>
      <trkpt lat="43.59872" lon="1.17349">
        <ele>273</ele>
        <time>2019-12-30T12:52:24+01:00</time>
      </trkpt>
      <trkpt lat="43.5988" lon="1.17337">
        <ele>273</ele>
        <time>2019-12-30T12:52:34+01:00</time>
      </trkpt>
      <trkpt lat="43.59886" lon="1.1732">
        <ele>274</ele>
        <time>2019-12-30T12:52:44+01:00</time>
      </trkpt>
      <trkpt lat="43.59891" lon="1.17304">
        <ele>274</ele>
        <time>2019-12-30T12:52:54+01:00</time>
      </trkpt>
      <trkpt lat="43.59903" lon="1.17276">
        <ele>275</ele>
        <time>2019-12-30T12:53:14+01:00</time>
      </trkpt>
      <trkpt lat="43.59908" lon="1.17267">
        <ele>275</ele>
        <time>2019-12-30T12:53:20+01:00</time>
      </trkpt>
      <trkpt lat="43.59924" lon="1.17251">
        <ele>275</ele>
        <time>2019-12-30T12:53:36+01:00</time>
      </trkpt>
      <trkpt lat="43.59935" lon="1.17239">
        <ele>275</ele>
        <time>2019-12-30T12:53:47+01:00</time>
      </trkpt>
      <trkpt lat="43.59942" lon="1.17225">
        <ele>275</ele>
        <time>2019-12-30T12:53:57+01:00</time>
      </trkpt>
      <trkpt lat="43.59947" lon="1.17209">
        <ele>275</ele>
        <time>2019-12-30T12:54:08+01:00</time>
      </trkpt>
      <trkpt lat="43.59955" lon="1.17187">
        <ele>274</ele>
        <time>2019-12-30T12:54:22+01:00</time>
      </trkpt>
      <trkpt lat="43.59963" lon="1.17165">
        <ele>273</ele>
        <time>2019-12-30T12:54:36+01:00</time>
      </trkpt>
      <trkpt lat="43.59969" lon="1.17145">
        <ele>272</ele>
        <time>2019-12-30T12:54:49+01:00</time>
      </trkpt>
      <trkpt lat="43.59981" lon="1.17115">
        <ele>272</ele>
        <time>2019-12-30T12:55:09+01:00</time>
      </trkpt>
      <trkpt lat="43.60001" lon="1.17093">
        <ele>271</ele>
        <time>2019-12-30T12:55:29+01:00</time>
      </trkpt>
      <trkpt lat="43.60025" lon="1.17062">
        <ele>272</ele>
        <time>2019-12-30T12:55:55+01:00</time>
      </trkpt>
      <trkpt lat="43.60042" lon="1.17043">
        <ele>272</ele>
        <time>2019-12-30T12:56:13+01:00</time>
      </trkpt>
      <trkpt lat="43.60044" lon="1.17037">
        <ele>272</ele>
        <time>2019-12-30T12:56:17+01:00</time>
      </trkpt>
      <trkpt lat="43.60073" lon="1.16975">
        <ele>274</ele>
        <time>2019-12-30T12:56:59+01:00</time>
      </trkpt>
      <trkpt lat="43.60094" lon="1.16906">
        <ele>276</ele>
        <time>2019-12-30T12:57:43+01:00</time>
      </trkpt>
      <trkpt lat="43.60111" lon="1.16836">
        <ele>279</ele>
        <time>2019-12-30T12:58:26+01:00</time>
      </trkpt>
      <trkpt lat="43.60115" lon="1.16795">
        <ele>280</ele>
        <time>2019-12-30T12:58:50+01:00</time>
      </trkpt>
      <trkpt lat="43.60118" lon="1.16758">
        <ele>281</ele>
        <time>2019-12-30T12:59:12+01:00</time>
      </trkpt>
      <trkpt lat="43.60106" lon="1.16707">
        <ele>283</ele>
        <time>2019-12-30T12:59:43+01:00</time>
      </trkpt>
      <trkpt lat="43.60108" lon="1.16664">
        <ele>283</ele>
        <time>2019-12-30T13:00:08+01:00</time>
      </trkpt>
      <trkpt lat="43.60113" lon="1.16607">
        <ele>284</ele>
        <time>2019-12-30T13:00:41+01:00</time>
      </trkpt>
      <trkpt lat="43.60116" lon="1.16581">
        <ele>285</ele>
        <time>2019-12-30T13:00:57+01:00</time>
      </trkpt>
      <trkpt lat="43.60144" lon="1.16606">
        <ele>283</ele>
        <time>2019-12-30T13:01:24+01:00</time>
      </trkpt>
      <trkpt lat="43.60174" lon="1.16606">
        <ele>282</ele>
        <time>2019-12-30T13:01:48+01:00</time>
      </trkpt>
      <trkpt lat="43.602" lon="1.16591">
        <ele>281</ele>
        <time>2019-12-30T13:02:11+01:00</time>
      </trkpt>
      <trkpt lat="43.60246" lon="1.16575">
        <ele>278</ele>
        <time>2019-12-30T13:02:49+01:00</time>
      </trkpt>
      <trkpt lat="43.60267" lon="1.1658">
        <ele>277</ele>
        <time>2019-12-30T13:03:06+01:00</time>
      </trkpt>
      <trkpt lat="43.60301" lon="1.16583">
        <ele>275</ele>
        <time>2019-12-30T13:03:33+01:00</time>
      </trkpt>
      <trkpt lat="43.60335" lon="1.16595">
        <ele>274</ele>
        <time>2019-12-30T13:04:01+01:00</time>
      </trkpt>
      <trkpt lat="43.60367" lon="1.16605">
        <ele>272</ele>
        <time>2019-12-30T13:04:27+01:00</time>
      </trkpt>
      <trkpt lat="43.60395" lon="1.16638">
        <ele>271</ele>
        <time>2019-12-30T13:04:56+01:00</time>
      </trkpt>
      <trkpt lat="43.60411" lon="1.16653">
        <ele>270</ele>
        <time>2019-12-30T13:05:12+01:00</time>
      </trkpt>
      <trkpt lat="43.60429" lon="1.16683">
        <ele>270</ele>
        <time>2019-12-30T13:05:34+01:00</time>
      </trkpt>
      <trkpt lat="43.60436" lon="1.16738">
        <ele>270</ele>
        <time>2019-12-30T13:06:07+01:00</time>
      </trkpt>
      <trkpt lat="43.60454" lon="1.16782">
        <ele>270</ele>
        <time>2019-12-30T13:06:36+01:00</time>
      </trkpt>
      <trkpt lat="43.6047" lon="1.16827">
        <ele>271</ele>
        <time>2019-12-30T13:07:05+01:00</time>
      </trkpt>
      <trkpt lat="43.60486" lon="1.16872">
        <ele>271</ele>
        <time>2019-12-30T13:07:35+01:00</time>
      </trkpt>
      <trkpt lat="43.60492" lon="1.16972">
        <ele>272</ele>
        <time>2019-12-30T13:08:33+01:00</time>
      </trkpt>
      <trkpt lat="43.60496" lon="1.16999">
        <ele>272</ele>
        <time>2019-12-30T13:08:49+01:00</time>
      </trkpt>
      <trkpt lat="43.60494" lon="1.17067">
        <ele>271</ele>
        <time>2019-12-30T13:09:28+01:00</time>
      </trkpt>
      <trkpt lat="43.60499" lon="1.17107">
        <ele>271</ele>
        <time>2019-12-30T13:09:52+01:00</time>
      </trkpt>
      <trkpt lat="43.60508" lon="1.17156">
        <ele>270</ele>
        <time>2019-12-30T13:10:21+01:00</time>
      </trkpt>
      <trkpt lat="43.6053" lon="1.1721">
        <ele>270</ele>
        <time>2019-12-30T13:10:58+01:00</time>
      </trkpt>
      <trkpt lat="43.6056" lon="1.17264">
        <ele>270</ele>
        <time>2019-12-30T13:11:37+01:00</time>
      </trkpt>
      <trkpt lat="43.60599" lon="1.17335">
        <ele>269</ele>
        <time>2019-12-30T13:12:28+01:00</time>
      </trkpt>
      <trkpt lat="43.60604" lon="1.17389">
        <ele>266</ele>
        <time>2019-12-30T13:13:00+01:00</time>
      </trkpt>
      <trkpt lat="43.60644" lon="1.17409">
        <ele>266</ele>
        <time>2019-12-30T13:13:34+01:00</time>
      </trkpt>
      <trkpt lat="43.60662" lon="1.17426">
        <ele>267</ele>
        <time>2019-12-30T13:13:51+01:00</time>
      </trkpt>
      <trkpt lat="43.60687" lon="1.17449">
        <ele>268</ele>
        <time>2019-12-30T13:14:15+01:00</time>
      </trkpt>
      <trkpt lat="43.60718" lon="1.17458">
        <ele>270</ele>
        <time>2019-12-30T13:14:41+01:00</time>
      </trkpt>
      <trkpt lat="43.60729" lon="1.17481">
        <ele>270</ele>
        <time>2019-12-30T13:14:57+01:00</time>
      </trkpt>
      <trkpt lat="43.60739" lon="1.17511">
        <ele>270</ele>
        <time>2019-12-30T13:15:16+01:00</time>
      </trkpt>
      <trkpt lat="43.60743" lon="1.17548">
        <ele>269</ele>
        <time>2019-12-30T13:15:38+01:00</time>
      </trkpt>
      <trkpt lat="43.60758" lon="1.17593">
        <ele>268</ele>
        <time>2019-12-30T13:16:07+01:00</time>
      </trkpt>
      <trkpt lat="43.60771" lon="1.1764">
        <ele>267</ele>
        <time>2019-12-30T13:16:35+01:00</time>
      </trkpt>
      <trkpt lat="43.60788" lon="1.17678">
        <ele>268</ele>
        <time>2019-12-30T13:17:01+01:00</time>
      </trkpt>
      <trkpt lat="43.60803" lon="1.17721">
        <ele>270</ele>
        <time>2019-12-30T13:17:29+01:00</time>
      </trkpt>
      <trkpt lat="43.6082" lon="1.17773">
        <ele>272</ele>
        <time>2019-12-30T13:18:02+01:00</time>
      </trkpt>
      <trkpt lat="43.60914" lon="1.17721">
        <ele>272</ele>
        <time>2019-12-30T13:19:23+01:00</time>
      </trkpt>
      <trkpt lat="43.60999" lon="1.1768">
        <ele>268</ele>
        <time>2019-12-30T13:20:35+01:00</time>
      </trkpt>
      <trkpt lat="43.61003" lon="1.17678">
        <ele>267</ele>
        <time>2019-12-30T13:20:38+01:00</time>
      </trkpt>
      <trkpt lat="43.61085" lon="1.17629">
        <ele>251</ele>
        <time>2019-12-30T13:21:50+01:00</time>
      </trkpt>
      <trkpt lat="43.61132" lon="1.17777">
        <ele>256</ele>
        <time>2019-12-30T13:23:24+01:00</time>
      </trkpt>
      <trkpt lat="43.61163" lon="1.17904">
        <ele>257</ele>
        <time>2019-12-30T13:24:42+01:00</time>
      </trkpt>
      <trkpt lat="43.61205" lon="1.18023">
        <ele>257</ele>
        <time>2019-12-30T13:25:58+01:00</time>
      </trkpt>
      <trkpt lat="43.61205" lon="1.18023">
        <ele>257</ele>
        <time>2019-12-30T13:25:59+01:00</time>
      </trkpt>
      <trkpt lat="43.61205" lon="1.18023">
        <ele>257</ele>
        <time>2019-12-30T13:25:59+01:00</time>
      </trkpt>
      <trkpt lat="43.6122" lon="1.18067">
        <ele>257</ele>
        <time>2019-12-30T13:26:27+01:00</time>
      </trkpt>
      <trkpt lat="43.61245" lon="1.18167">
        <ele>258</ele>
        <time>2019-12-30T13:27:29+01:00</time>
      </trkpt>
      <trkpt lat="43.61253" lon="1.18183">
        <ele>257</ele>
        <time>2019-12-30T13:27:40+01:00</time>
      </trkpt>
      <trkpt lat="43.61267" lon="1.18222">
        <ele>256</ele>
        <time>2019-12-30T13:28:05+01:00</time>
      </trkpt>
      <trkpt lat="43.61278" lon="1.18267">
        <ele>255</ele>
        <time>2019-12-30T13:28:33+01:00</time>
      </trkpt>
      <trkpt lat="43.61292" lon="1.1832">
        <ele>252</ele>
        <time>2019-12-30T13:29:05+01:00</time>
      </trkpt>
      <trkpt lat="43.61308" lon="1.18367">
        <ele>250</ele>
        <time>2019-12-30T13:29:36+01:00</time>
      </trkpt>
      <trkpt lat="43.6132" lon="1.18408">
        <ele>249</ele>
        <time>2019-12-30T13:30:01+01:00</time>
      </trkpt>
      <trkpt lat="43.6133" lon="1.1844">
        <ele>248</ele>
        <time>2019-12-30T13:30:21+01:00</time>
      </trkpt>
      <trkpt lat="43.61341" lon="1.18478">
        <ele>247</ele>
        <time>2019-12-30T13:30:45+01:00</time>
      </trkpt>
      <trkpt lat="43.61353" lon="1.18518">
        <ele>245</ele>
        <time>2019-12-30T13:31:10+01:00</time>
      </trkpt>
      <trkpt lat="43.61364" lon="1.18559">
        <ele>244</ele>
        <time>2019-12-30T13:31:36+01:00</time>
      </trkpt>
      <trkpt lat="43.61374" lon="1.18592">
        <ele>244</ele>
        <time>2019-12-30T13:31:56+01:00</time>
      </trkpt>
      <trkpt lat="43.61388" lon="1.18642">
        <ele>242</ele>
        <time>2019-12-30T13:32:28+01:00</time>
      </trkpt>
      <trkpt lat="43.61401" lon="1.18682">
        <ele>241</ele>
        <time>2019-12-30T13:32:53+01:00</time>
      </trkpt>
      <trkpt lat="43.61412" lon="1.18729">
        <ele>240</ele>
        <time>2019-12-30T13:33:22+01:00</time>
      </trkpt>
      <trkpt lat="43.61426" lon="1.18776">
        <ele>239</ele>
        <time>2019-12-30T13:33:52+01:00</time>
      </trkpt>
      <trkpt lat="43.61436" lon="1.18813">
        <ele>239</ele>
        <time>2019-12-30T13:34:14+01:00</time>
      </trkpt>
      <trkpt lat="43.61451" lon="1.18864">
        <ele>238</ele>
        <time>2019-12-30T13:34:46+01:00</time>
      </trkpt>
      <trkpt lat="43.61482" lon="1.18968">
        <ele>236</ele>
        <time>2019-12-30T13:35:51+01:00</time>
      </trkpt>
      <trkpt lat="43.61496" lon="1.19017">
        <ele>235</ele>
        <time>2019-12-30T13:36:22+01:00</time>
      </trkpt>
      <trkpt lat="43.61506" lon="1.19057">
        <ele>233</ele>
        <time>2019-12-30T13:36:47+01:00</time>
      </trkpt>
      <trkpt lat="43.61516" lon="1.19095">
        <ele>233</ele>
        <time>2019-12-30T13:37:10+01:00</time>
      </trkpt>
      <trkpt lat="43.61525" lon="1.1913">
        <ele>232</ele>
        <time>2019-12-30T13:37:32+01:00</time>
      </trkpt>
      <trkpt lat="43.61534" lon="1.19168">
        <ele>231</ele>
        <time>2019-12-30T13:37:55+01:00</time>
      </trkpt>
      <trkpt lat="43.61544" lon="1.19203">
        <ele>230</ele>
        <time>2019-12-30T13:38:17+01:00</time>
      </trkpt>
      <trkpt lat="43.61556" lon="1.19239">
        <ele>228</ele>
        <time>2019-12-30T13:38:40+01:00</time>
      </trkpt>
      <trkpt lat="43.61564" lon="1.19278">
        <ele>225</ele>
        <time>2019-12-30T13:39:04+01:00</time>
      </trkpt>
      <trkpt lat="43.61574" lon="1.1931">
        <ele>224</ele>
        <time>2019-12-30T13:39:24+01:00</time>
      </trkpt>
      <trkpt lat="43.61581" lon="1.1932">
        <ele>224</ele>
        <time>2019-12-30T13:39:32+01:00</time>
      </trkpt>
      <trkpt lat="43.61589" lon="1.19322">
        <ele>223</ele>
        <time>2019-12-30T13:39:38+01:00</time>
      </trkpt>
      <trkpt lat="43.61603" lon="1.19425">
        <ele>220</ele>
        <time>2019-12-30T13:40:39+01:00</time>
      </trkpt>
      <trkpt lat="43.61613" lon="1.19451">
        <ele>220</ele>
        <time>2019-12-30T13:40:56+01:00</time>
      </trkpt>
      <trkpt lat="43.61595" lon="1.19488">
        <ele>220</ele>
        <time>2019-12-30T13:41:22+01:00</time>
      </trkpt>
      <trkpt lat="43.61569" lon="1.19545">
        <ele>219</ele>
        <time>2019-12-30T13:42:01+01:00</time>
      </trkpt>
      <trkpt lat="43.6155" lon="1.19585">
        <ele>219</ele>
        <time>2019-12-30T13:42:29+01:00</time>
      </trkpt>
      <trkpt lat="43.61529" lon="1.19633">
        <ele>219</ele>
        <time>2019-12-30T13:43:02+01:00</time>
      </trkpt>
      <trkpt lat="43.61507" lon="1.19683">
        <ele>218</ele>
        <time>2019-12-30T13:43:36+01:00</time>
      </trkpt>
      <trkpt lat="43.61487" lon="1.19727">
        <ele>218</ele>
        <time>2019-12-30T13:44:05+01:00</time>
      </trkpt>
      <trkpt lat="43.61477" lon="1.19753">
        <ele>218</ele>
        <time>2019-12-30T13:44:23+01:00</time>
      </trkpt>
      <trkpt lat="43.61464" lon="1.19782">
        <ele>218</ele>
        <time>2019-12-30T13:44:42+01:00</time>
      </trkpt>
      <trkpt lat="43.61451" lon="1.1981">
        <ele>218</ele>
        <time>2019-12-30T13:45:02+01:00</time>
      </trkpt>
      <trkpt lat="43.6144" lon="1.19837">
        <ele>217</ele>
        <time>2019-12-30T13:45:20+01:00</time>
      </trkpt>
      <trkpt lat="43.61426" lon="1.19866">
        <ele>217</ele>
        <time>2019-12-30T13:45:40+01:00</time>
      </trkpt>
      <trkpt lat="43.61414" lon="1.19894">
        <ele>217</ele>
        <time>2019-12-30T13:45:59+01:00</time>
      </trkpt>
      <trkpt lat="43.6139" lon="1.19878">
        <ele>218</ele>
        <time>2019-12-30T13:46:20+01:00</time>
      </trkpt>
      <trkpt lat="43.61316" lon="1.19955">
        <ele>218</ele>
        <time>2019-12-30T13:47:34+01:00</time>
      </trkpt>
      <trkpt lat="43.61316" lon="1.19955">
        <ele>218</ele>
        <time>2019-12-30T13:47:35+01:00</time>
      </trkpt>
      <trkpt lat="43.61316" lon="1.19955">
        <ele>218</ele>
        <time>2019-12-30T13:47:35+01:00</time>
      </trkpt>
      <trkpt lat="43.61315" lon="1.19955">
        <ele>218</ele>
        <time>2019-12-30T13:47:35+01:00</time>
      </trkpt>
      <trkpt lat="43.61287" lon="1.20011">
        <ele>219</ele>
        <time>2019-12-30T13:48:15+01:00</time>
      </trkpt>
      <trkpt lat="43.61258" lon="1.20071">
        <ele>222</ele>
        <time>2019-12-30T13:48:57+01:00</time>
      </trkpt>
      <trkpt lat="43.61233" lon="1.20131">
        <ele>222</ele>
        <time>2019-12-30T13:49:37+01:00</time>
      </trkpt>
      <trkpt lat="43.61183" lon="1.20191">
        <ele>222</ele>
        <time>2019-12-30T13:50:30+01:00</time>
      </trkpt>
      <trkpt lat="43.61101" lon="1.20267">
        <ele>217</ele>
        <time>2019-12-30T13:51:49+01:00</time>
      </trkpt>
      <trkpt lat="43.61029" lon="1.20313">
        <ele>218</ele>
        <time>2019-12-30T13:52:53+01:00</time>
      </trkpt>
      <trkpt lat="43.61021" lon="1.20306">
        <ele>219</ele>
        <time>2019-12-30T13:53:00+01:00</time>
      </trkpt>
      <trkpt lat="43.6097" lon="1.20416">
        <ele>210</ele>
        <time>2019-12-30T13:54:16+01:00</time>
      </trkpt>
      <trkpt lat="43.60918" lon="1.2039">
        <ele>211</ele>
        <time>2019-12-30T13:55:01+01:00</time>
      </trkpt>
      <trkpt lat="43.60829" lon="1.20417">
        <ele>206</ele>
        <time>2019-12-30T13:56:12+01:00</time>
      </trkpt>
      <trkpt lat="43.60829" lon="1.20417">
        <ele>206</ele>
        <time>2019-12-30T13:56:13+01:00</time>
      </trkpt>
      <trkpt lat="43.60829" lon="1.20417">
        <ele>206</ele>
        <time>2019-12-30T13:56:13+01:00</time>
      </trkpt>
      <trkpt lat="43.60791" lon="1.20429">
        <ele>205</ele>
        <time>2019-12-30T13:56:44+01:00</time>
      </trkpt>
      <trkpt lat="43.60736" lon="1.20395">
        <ele>204</ele>
        <time>2019-12-30T13:57:33+01:00</time>
      </trkpt>
      <trkpt lat="43.60654" lon="1.20352">
        <ele>204</ele>
        <time>2019-12-30T13:58:43+01:00</time>
      </trkpt>
      <trkpt lat="43.60629" lon="1.20296">
        <ele>206</ele>
        <time>2019-12-30T13:59:21+01:00</time>
      </trkpt>
      <trkpt lat="43.60588" lon="1.20236">
        <ele>206</ele>
        <time>2019-12-30T14:00:09+01:00</time>
      </trkpt>
      <trkpt lat="43.60569" lon="1.20194">
        <ele>206</ele>
        <time>2019-12-30T14:00:38+01:00</time>
      </trkpt>
      <trkpt lat="43.60547" lon="1.20149">
        <ele>207</ele>
        <time>2019-12-30T14:01:09+01:00</time>
      </trkpt>
      <trkpt lat="43.60528" lon="1.20114">
        <ele>207</ele>
        <time>2019-12-30T14:01:35+01:00</time>
      </trkpt>
      <trkpt lat="43.60506" lon="1.2008">
        <ele>207</ele>
        <time>2019-12-30T14:02:01+01:00</time>
      </trkpt>
      <trkpt lat="43.60407" lon="1.1996">
        <ele>211</ele>
        <time>2019-12-30T14:03:47+01:00</time>
      </trkpt>
      <trkpt lat="43.60391" lon="1.19941">
        <ele>211</ele>
        <time>2019-12-30T14:04:04+01:00</time>
      </trkpt>
      <trkpt lat="43.60336" lon="1.1988">
        <ele>210</ele>
        <time>2019-12-30T14:05:00+01:00</time>
      </trkpt>
      <trkpt lat="43.60321" lon="1.19841">
        <ele>210</ele>
        <time>2019-12-30T14:05:26+01:00</time>
      </trkpt>
      <trkpt lat="43.60321" lon="1.19677">
        <ele>213</ele>
        <time>2019-12-30T14:07:01+01:00</time>
      </trkpt>
      <trkpt lat="43.60321" lon="1.19657">
        <ele>214</ele>
        <time>2019-12-30T14:07:13+01:00</time>
      </trkpt>
      <trkpt lat="43.60325" lon="1.19563">
        <ele>216</ele>
        <time>2019-12-30T14:08:07+01:00</time>
      </trkpt>
      <trkpt lat="43.6035" lon="1.19479">
        <ele>218</ele>
        <time>2019-12-30T14:09:00+01:00</time>
      </trkpt>
      <trkpt lat="43.60336" lon="1.19428">
        <ele>218</ele>
        <time>2019-12-30T14:09:32+01:00</time>
      </trkpt>
      <trkpt lat="43.60353" lon="1.19333">
        <ele>220</ele>
        <time>2019-12-30T14:10:29+01:00</time>
      </trkpt>
      <trkpt lat="43.60359" lon="1.19308">
        <ele>222</ele>
        <time>2019-12-30T14:10:44+01:00</time>
      </trkpt>
      <trkpt lat="43.60349" lon="1.19256">
        <ele>226</ele>
        <time>2019-12-30T14:11:15+01:00</time>
      </trkpt>
      <trkpt lat="43.60359" lon="1.19221">
        <ele>228</ele>
        <time>2019-12-30T14:11:37+01:00</time>
      </trkpt>
      <trkpt lat="43.60356" lon="1.19158">
        <ele>231</ele>
        <time>2019-12-30T14:12:14+01:00</time>
      </trkpt>
      <trkpt lat="43.6031" lon="1.19085">
        <ele>230</ele>
        <time>2019-12-30T14:13:10+01:00</time>
      </trkpt>
      <trkpt lat="43.60312" lon="1.19028">
        <ele>231</ele>
        <time>2019-12-30T14:13:43+01:00</time>
      </trkpt>
      <trkpt lat="43.60329" lon="1.19005">
        <ele>233</ele>
        <time>2019-12-30T14:14:03+01:00</time>
      </trkpt>
      <trkpt lat="43.60326" lon="1.19002">
        <ele>233</ele>
        <time>2019-12-30T14:14:05+01:00</time>
      </trkpt>
      <trkpt lat="43.60316" lon="1.18938">
        <ele>233</ele>
        <time>2019-12-30T14:14:43+01:00</time>
      </trkpt>
      <trkpt lat="43.60319" lon="1.18876">
        <ele>235</ele>
        <time>2019-12-30T14:15:20+01:00</time>
      </trkpt>
      <trkpt lat="43.60342" lon="1.18828">
        <ele>239</ele>
        <time>2019-12-30T14:15:53+01:00</time>
      </trkpt>
      <trkpt lat="43.60361" lon="1.18778">
        <ele>242</ele>
        <time>2019-12-30T14:16:26+01:00</time>
      </trkpt>
      <trkpt lat="43.60383" lon="1.18726">
        <ele>246</ele>
        <time>2019-12-30T14:17:01+01:00</time>
      </trkpt>
      <trkpt lat="43.60352" lon="1.18703">
        <ele>244</ele>
        <time>2019-12-30T14:17:29+01:00</time>
      </trkpt>
      <trkpt lat="43.60357" lon="1.18693">
        <ele>245</ele>
        <time>2019-12-30T14:17:37+01:00</time>
      </trkpt>
      <trkpt lat="43.6029" lon="1.1864">
        <ele>241</ele>
        <time>2019-12-30T14:18:38+01:00</time>
      </trkpt>
      <trkpt lat="43.60272" lon="1.18626">
        <ele>240</ele>
        <time>2019-12-30T14:18:55+01:00</time>
      </trkpt>
      <trkpt lat="43.60135" lon="1.18513">
        <ele>236</ele>
        <time>2019-12-30T14:21:02+01:00</time>
      </trkpt>
      <trkpt lat="43.60094" lon="1.1848">
        <ele>240</ele>
        <time>2019-12-30T14:21:41+01:00</time>
      </trkpt>
      <trkpt lat="43.60045" lon="1.18439">
        <ele>244</ele>
        <time>2019-12-30T14:22:26+01:00</time>
      </trkpt>
      <trkpt lat="43.60029" lon="1.18426">
        <ele>244</ele>
        <time>2019-12-30T14:22:41+01:00</time>
      </trkpt>
      <trkpt lat="43.60015" lon="1.18414">
        <ele>245</ele>
        <time>2019-12-30T14:22:54+01:00</time>
      </trkpt>
      <trkpt lat="43.59962" lon="1.18538">
        <ele>246</ele>
        <time>2019-12-30T14:24:18+01:00</time>
      </trkpt>
      <trkpt lat="43.59958" lon="1.18548">
        <ele>246</ele>
        <time>2019-12-30T14:24:24+01:00</time>
      </trkpt>
      <trkpt lat="43.59934" lon="1.18604">
        <ele>245</ele>
        <time>2019-12-30T14:25:02+01:00</time>
      </trkpt>
      <trkpt lat="43.59907" lon="1.18666">
        <ele>242</ele>
        <time>2019-12-30T14:25:44+01:00</time>
      </trkpt>
      <trkpt lat="43.59879" lon="1.18645">
        <ele>242</ele>
        <time>2019-12-30T14:26:10+01:00</time>
      </trkpt>
      <trkpt lat="43.59863" lon="1.18632">
        <ele>242</ele>
        <time>2019-12-30T14:26:25+01:00</time>
      </trkpt>
      <trkpt lat="43.59857" lon="1.18627">
        <ele>242</ele>
        <time>2019-12-30T14:26:31+01:00</time>
      </trkpt>
      <trkpt lat="43.59852" lon="1.18632">
        <ele>242</ele>
        <time>2019-12-30T14:26:36+01:00</time>
      </trkpt>
      <trkpt lat="43.59845" lon="1.18639">
        <ele>241</ele>
        <time>2019-12-30T14:26:42+01:00</time>
      </trkpt>
      <trkpt lat="43.59838" lon="1.18646">
        <ele>241</ele>
        <time>2019-12-30T14:26:50+01:00</time>
      </trkpt>
      <trkpt lat="43.59838" lon="1.18661">
        <ele>241</ele>
        <time>2019-12-30T14:26:58+01:00</time>
      </trkpt>
    </trkseg>
  </trk>
</gpx>